Mijn webcam Meer informatie My webcam


Webcam richting Noord-Oost Meer informatie webcam facing north-east


Regen radar Meer informatie rain snow radar


Bezoek onze andere website:

Template documentation
and downloads

And another site



METAR rapporten vliegvelden

   
EHGG - Groningen/Eelde
Gewijzigd: 25-05-2017 11:55
Licht bewolkt  
Licht bewolkt  
   Wind: Noorden 4.1 m/s
Wind: Noorden 4.1 m/s
Temperatuur: 18°C
Dauwpunt: 11°C
Vochtigheid: 64%
Barometer: 1025 hPa
Bewolking: Licht bewolkt
Zicht: Meer dan 10 km
Bewolking: Licht bewolkt 2600 ft
EHGG 250955Z AUTO 35008KT 290V040 9999 FEW026 18/11 Q1025 NOSIG
EHMA - Schiermonnikoog
Gewijzigd: 25-05-2017 12:25
Helder  
Helder  
   Wind: Noorden 1 m/s
Wind: Noorden 1 m/s
Temperatuur: 13°C
Dauwpunt: 11°C
Vochtigheid: 88%
Barometer: 1026 hPa
Bewolking: Helder
Zicht: Meer dan 10 km
Bewolking: Helder
EHMA 251025Z AUTO 36002KT 9999 NCD 13/11 Q1026
EHMG - Terschelling
Gewijzigd: 25-05-2017 12:25
Helder  
Helder  
   Wind: Noorden 2.1 m/s
Wind: Noorden 2.1 m/s
Temperatuur: 13°C
Dauwpunt: 11°C
Vochtigheid: 88%
Barometer: 1026 hPa
Bewolking: Helder
Zicht: Meer dan 10 km
Bewolking: Helder
EHMG 251025Z AUTO 36004KT 300V050 9999 NCD 13/11 Q1026
EHVL - Vlieland
Gewijzigd: 25-05-2017 12:25
Helder  
Helder  
   Wind: NNW 2.6 m/s
Wind: NNW 2.6 m/s
Temperatuur: 15°C
Dauwpunt: 11°C
Vochtigheid: 77%
Barometer: 1026 hPa
Bewolking: Helder
Zicht: Meer dan 10 km
Bewolking: Helder
EHVL 251025Z AUTO 34005KT 310V030 9999 NCD 15/11 Q1026 BLU
ETWM - Meppen, Germany
Gewijzigd: 25-05-2017 12:20
  
  
   Wind: Noorden 2.6 m/s
Wind: Noorden 2.6 m/s
Temperatuur: 18°C
Dauwpunt: 11°C
Vochtigheid: 64%
Barometer: 1025 hPa
Zicht: Meer dan 10 km
ETWM 251020Z AUTO 35005KT 9999 // ////// 18/11 Q1025 ///
 

Script ontwikkeld door  Saratoga-weather.org Aangepast voor de template door  Weerstation Leuven

U vindt ons ook hier:

Het Weer Aktueel

UK Metoffice

European Weather Network

WeatherCloud

Weather Underground

Benelux Weer Netwerk

AWEKAS

WeatherlinkIP

HAMweather, WeatherForYou, PWS Weather

Apparatuur in gebruik:

Weerstation
Davis VP2 Plus

Weerprogramma
Cumulus

Weercomputer
ASUS Eee Box B202

Webleverancier
Antagonist

Davis VP2 Plus

Cumulus

ASUS Eee Box B202

Antagonist